createdAt,value
2023-02-21T00:00:52.938Z,28.60
2023-02-21T00:03:38.491Z,33.70
2023-02-21T00:06:27.255Z,33.97
2023-02-21T00:09:12.489Z,33.30
2023-02-21T00:12:03.800Z,34.23
2023-02-21T00:14:48.951Z,34.20
2023-02-21T00:17:34.875Z,39.73
2023-02-21T00:20:20.223Z,34.73
2023-02-21T00:23:05.520Z,33.67
2023-02-21T00:25:50.854Z,39.90
2023-02-21T00:28:37.516Z,35.70
2023-02-21T00:31:23.159Z,34.20
2023-02-21T00:34:08.399Z,32.50
2023-02-21T00:36:53.711Z,35.73
2023-02-21T00:39:39.154Z,37.17
2023-02-21T00:42:24.406Z,31.13
2023-02-21T00:45:09.663Z,31.10
2023-02-21T00:47:55.298Z,33.47
2023-02-21T00:50:40.911Z,31.10
2023-02-21T00:53:26.098Z,34.23
2023-02-21T00:56:11.848Z,37.70
2023-02-21T00:58:56.975Z,40.20
2023-02-21T01:01:42.524Z,43.20
2023-02-21T01:04:27.889Z,38.90
2023-02-21T01:07:13.034Z,30.30
2023-02-21T01:09:58.502Z,39.00
2023-02-21T01:12:43.929Z,37.77
2023-02-21T01:15:29.325Z,42.80
2023-02-21T01:18:14.495Z,43.90
2023-02-21T01:20:59.797Z,35.50
2023-02-21T01:23:45.083Z,43.27
2023-02-21T01:26:30.506Z,41.20
2023-02-21T01:29:16.109Z,42.97
2023-02-21T01:32:01.405Z,35.87
2023-02-21T01:34:46.858Z,37.27
2023-02-21T01:37:32.237Z,37.77
2023-02-21T01:40:17.710Z,39.27
2023-02-21T01:43:03.091Z,44.57
2023-02-21T01:46:01.916Z,44.27
2023-02-21T01:48:48.764Z,38.73
2023-02-21T01:51:39.528Z,36.30
2023-02-21T01:54:25.726Z,43.63
2023-02-21T01:57:11.997Z,43.50
2023-02-21T01:59:57.859Z,41.23
2023-02-21T02:02:51.662Z,36.53
2023-02-21T02:05:37.720Z,39.60
2023-02-21T02:08:23.168Z,43.33
2023-02-21T02:11:17.615Z,40.27
2023-02-21T02:14:17.726Z,44.70
2023-02-21T02:17:05.547Z,40.27
2023-02-21T02:19:44.461Z,47.30
2023-02-21T02:22:31.306Z,44.23
2023-02-21T02:25:18.036Z,44.47
2023-02-21T02:28:28.862Z,41.37
2023-02-21T02:31:32.671Z,42.83
2023-02-21T02:34:20.575Z,43.93
2023-02-21T02:36:55.959Z,38.87
2023-02-21T02:39:35.402Z,43.03
2023-02-21T02:42:26.740Z,43.33
2023-02-21T02:45:19.767Z,39.23
2023-02-21T02:47:54.823Z,50.80
2023-02-21T02:50:23.004Z,43.23
2023-02-21T02:52:52.061Z,40.00
2023-02-21T02:55:40.575Z,42.57
2023-02-21T02:58:10.347Z,45.63
2023-02-21T03:00:40.732Z,39.43
2023-02-21T03:03:35.916Z,44.90
2023-02-21T03:06:28.505Z,50.73
2023-02-21T03:09:01.824Z,43.90
2023-02-21T03:11:28.818Z,45.10
2023-02-21T03:14:12.525Z,48.57
2023-02-21T03:16:55.753Z,48.10
2023-02-21T03:19:35.619Z,37.67
2023-02-21T03:22:09.713Z,43.57
2023-02-21T03:24:38.991Z,39.63
2023-02-21T03:27:07.886Z,58.50
2023-02-21T03:29:36.828Z,40.13
2023-02-21T03:32:17.362Z,43.07
2023-02-21T03:34:44.578Z,41.47
2023-02-21T03:37:39.164Z,38.97
2023-02-21T03:40:13.282Z,36.97
2023-02-21T03:42:40.054Z,46.03
2023-02-21T03:45:07.075Z,40.63
2023-02-21T03:47:33.814Z,41.30
2023-02-21T03:50:00.537Z,38.17
2023-02-21T03:52:27.228Z,49.67
2023-02-21T03:54:53.950Z,37.07
2023-02-21T03:57:20.686Z,41.00
2023-02-21T03:59:47.538Z,36.90
2023-02-21T04:02:14.497Z,39.60
2023-02-21T04:04:41.860Z,34.90
2023-02-21T04:07:09.939Z,39.27
2023-02-21T04:09:38.773Z,42.87
2023-02-21T04:12:06.220Z,38.63
2023-02-21T04:14:32.927Z,40.27
2023-02-21T04:16:59.757Z,41.40
2023-02-21T04:19:26.487Z,44.30
2023-02-21T04:21:53.271Z,46.17
2023-02-21T04:24:20.052Z,42.47
2023-02-21T04:26:46.875Z,40.00
2023-02-21T04:29:13.862Z,41.77
2023-02-21T04:31:40.682Z,46.80
2023-02-21T04:34:12.301Z,45.33
2023-02-21T04:36:39.585Z,38.93
2023-02-21T04:39:07.203Z,39.63
2023-02-21T04:41:34.273Z,45.87
2023-02-21T04:44:01.183Z,42.30
2023-02-21T04:46:27.917Z,42.43
2023-02-21T04:48:54.801Z,47.27
2023-02-21T04:51:24.268Z,37.33
2023-02-21T04:53:51.753Z,41.63
2023-02-21T04:56:21.054Z,43.83
2023-02-21T04:58:48.229Z,48.07
2023-02-21T05:01:17.515Z,48.47
2023-02-21T05:03:44.482Z,39.70
2023-02-21T05:06:16.718Z,38.63
2023-02-21T05:08:43.459Z,36.97
2023-02-21T05:11:10.238Z,40.70
2023-02-21T05:13:36.955Z,36.40
2023-02-21T05:16:03.846Z,45.63
2023-02-21T05:18:30.552Z,40.37
2023-02-21T05:20:57.392Z,40.10
2023-02-21T05:23:35.569Z,35.90
2023-02-21T05:26:10.896Z,34.70
2023-02-21T05:28:39.175Z,37.63
2023-02-21T05:31:07.111Z,38.57
2023-02-21T05:33:34.004Z,34.43
2023-02-21T05:36:00.937Z,33.23
2023-02-21T05:38:27.745Z,41.50
2023-02-21T05:40:54.780Z,35.00
2023-02-21T05:43:21.521Z,39.53
2023-02-21T05:45:48.358Z,34.67
2023-02-21T05:48:15.277Z,34.17
2023-02-21T05:50:42.071Z,31.93
2023-02-21T05:53:10.428Z,33.30
2023-02-21T05:55:37.600Z,38.07
2023-02-21T05:58:04.443Z,38.80
2023-02-21T06:00:31.745Z,35.53
2023-02-21T06:02:58.470Z,35.70
2023-02-21T06:05:25.569Z,33.70
2023-02-21T06:07:52.514Z,35.60
2023-02-21T06:10:20.002Z,36.17
2023-02-21T06:12:47.405Z,39.20
2023-02-21T06:15:14.247Z,35.90
2023-02-21T06:17:42.186Z,31.27
2023-02-21T06:20:13.089Z,37.73
2023-02-21T06:22:39.773Z,34.97
2023-02-21T06:25:07.272Z,37.13
2023-02-21T06:27:33.970Z,42.83
2023-02-21T06:30:00.720Z,37.60
2023-02-21T06:32:27.764Z,44.90
2023-02-21T06:34:54.564Z,36.20
2023-02-21T06:37:21.519Z,48.87
2023-02-21T06:39:48.175Z,43.43
2023-02-21T06:42:16.245Z,42.17
2023-02-21T06:44:47.284Z,41.60
2023-02-21T06:47:14.378Z,35.80
2023-02-21T06:49:41.209Z,37.50
2023-02-21T06:52:08.608Z,43.53
2023-02-21T06:54:35.411Z,43.90
2023-02-21T06:57:02.214Z,45.83
2023-02-21T06:59:29.667Z,42.70
2023-02-21T07:01:57.197Z,38.37
2023-02-21T07:04:25.517Z,51.67
2023-02-21T07:06:52.851Z,48.67
2023-02-21T07:09:19.637Z,48.40
2023-02-21T07:11:47.175Z,50.37
2023-02-21T07:14:14.830Z,52.70
2023-02-21T07:16:41.650Z,48.97
2023-02-21T07:19:08.589Z,53.83
2023-02-21T07:21:35.325Z,49.23
2023-02-21T07:24:02.210Z,47.83
2023-02-21T07:26:28.924Z,45.40
2023-02-21T07:28:55.748Z,48.47
2023-02-21T07:31:22.855Z,50.10
2023-02-21T07:33:49.883Z,46.57
2023-02-21T07:36:17.146Z,50.83
2023-02-21T07:38:44.043Z,53.00
2023-02-21T07:41:11.193Z,55.90
2023-02-21T07:43:39.235Z,48.97
2023-02-21T07:46:13.802Z,52.60
2023-02-21T07:48:40.654Z,58.07
2023-02-21T07:51:08.583Z,54.90
2023-02-21T07:53:35.284Z,55.53
2023-02-21T07:56:03.051Z,66.67
2023-02-21T07:58:29.845Z,56.70
2023-02-21T08:00:56.707Z,56.33
2023-02-21T08:03:23.537Z,54.27
2023-02-21T08:05:50.345Z,58.60
2023-02-21T08:08:17.344Z,49.23
2023-02-21T08:10:44.235Z,55.90
2023-02-21T08:13:11.022Z,57.20
2023-02-21T08:15:37.760Z,58.33
2023-02-21T08:18:04.623Z,60.83
2023-02-21T08:20:31.828Z,54.73
2023-02-21T08:22:58.684Z,57.57
2023-02-21T08:25:25.331Z,66.47
2023-02-21T08:27:55.341Z,63.73
2023-02-21T08:30:23.284Z,76.90
2023-02-21T08:32:51.459Z,70.90
2023-02-21T08:35:20.578Z,57.37
2023-02-21T08:37:48.473Z,53.70
2023-02-21T08:40:18.676Z,60.77
2023-02-21T08:42:49.682Z,58.90
2023-02-21T08:45:18.836Z,64.70
2023-02-21T08:47:45.864Z,62.57
2023-02-21T08:50:12.659Z,77.00
2023-02-21T08:52:39.498Z,60.37
2023-02-21T08:55:07.239Z,53.57
2023-02-21T08:57:34.762Z,50.47
2023-02-21T09:00:01.927Z,49.93
2023-02-21T09:02:29.032Z,48.67
2023-02-21T09:04:55.854Z,50.67
2023-02-21T09:07:24.361Z,47.67
2023-02-21T09:09:51.184Z,51.37
2023-02-21T09:12:18.337Z,46.40
2023-02-21T09:14:45.157Z,46.70
2023-02-21T09:17:13.888Z,49.57
2023-02-21T09:19:40.931Z,52.20
2023-02-21T09:22:09.543Z,43.50
2023-02-21T09:24:36.864Z,48.30
2023-02-21T09:27:03.786Z,49.60
2023-02-21T09:29:45.033Z,42.53
2023-02-21T09:32:13.175Z,46.47
2023-02-21T09:34:40.084Z,44.50
2023-02-21T09:37:07.409Z,44.87
2023-02-21T09:39:36.718Z,42.80
2023-02-21T09:42:03.507Z,44.43
2023-02-21T09:44:30.405Z,49.00
2023-02-21T09:47:05.904Z,50.50
2023-02-21T09:49:39.390Z,47.13
2023-02-21T09:52:16.323Z,48.20
2023-02-21T09:54:51.117Z,48.50
2023-02-21T09:57:18.760Z,48.87
2023-02-21T09:59:46.171Z,45.50
2023-02-21T10:02:19.136Z,49.90
2023-02-21T10:05:18.102Z,44.00
2023-02-21T10:08:01.524Z,45.83
2023-02-21T10:10:43.590Z,49.20
2023-02-21T10:13:34.520Z,51.03
2023-02-21T10:16:24.228Z,48.97
2023-02-21T10:19:03.915Z,53.90
2023-02-21T10:21:41.412Z,46.27
2023-02-21T10:24:15.423Z,47.77
2023-02-21T10:26:49.001Z,42.90
2023-02-21T10:29:35.690Z,45.63
2023-02-21T10:32:04.275Z,46.90
2023-02-21T10:34:33.293Z,50.40
2023-02-21T10:37:25.374Z,49.00
2023-02-21T10:39:58.435Z,49.33
2023-02-21T10:42:43.636Z,48.03
2023-02-21T10:45:13.345Z,44.70
2023-02-21T10:47:55.859Z,57.13
2023-02-21T10:50:43.817Z,56.00
2023-02-21T10:53:24.780Z,57.00
2023-02-21T10:56:20.436Z,64.07
2023-02-21T10:58:53.097Z,63.60
2023-02-21T11:01:25.929Z,67.17
2023-02-21T11:04:17.023Z,67.70
2023-02-21T11:07:15.832Z,73.47
2023-02-21T11:09:44.795Z,65.83
2023-02-21T11:12:21.849Z,75.50
2023-02-21T11:15:04.495Z,64.53
2023-02-21T11:17:32.611Z,64.77
2023-02-21T11:19:59.286Z,67.37
2023-02-21T11:22:39.415Z,76.47
2023-02-21T11:25:08.868Z,69.40
2023-02-21T11:27:37.200Z,70.87
2023-02-21T11:30:15.923Z,70.97
2023-02-21T11:32:49.356Z,70.43
2023-02-21T11:35:19.065Z,64.00
2023-02-21T11:38:09.843Z,63.63
2023-02-21T11:40:53.018Z,69.87
2023-02-21T11:43:48.141Z,76.43
2023-02-21T11:46:34.150Z,65.17
2023-02-21T11:49:22.534Z,69.20
2023-02-21T11:51:51.083Z,68.13
2023-02-21T11:54:20.122Z,66.33
2023-02-21T11:56:47.768Z,65.30
2023-02-21T11:59:27.843Z,69.77
2023-02-21T12:02:02.676Z,66.37
2023-02-21T12:04:52.357Z,63.57
2023-02-21T12:07:30.263Z,61.47
2023-02-21T12:10:07.756Z,68.83
2023-02-21T12:13:00.889Z,73.63
2023-02-21T12:16:05.586Z,66.50
2023-02-21T12:19:09.309Z,69.67
2023-02-21T12:22:03.961Z,68.73
2023-02-21T12:24:56.003Z,64.87
2023-02-21T12:28:00.683Z,64.77
2023-02-21T12:30:51.043Z,67.30
2023-02-21T12:33:25.900Z,62.67
2023-02-21T12:36:37.233Z,58.13
2023-02-21T12:39:03.974Z,57.37
2023-02-21T12:41:36.103Z,57.83
2023-02-21T12:44:13.674Z,54.57
2023-02-21T12:46:50.231Z,63.20
2023-02-21T12:49:26.957Z,57.00
2023-02-21T12:52:06.700Z,52.50
2023-02-21T12:54:47.137Z,56.10
2023-02-21T12:57:24.523Z,58.07
2023-02-21T12:59:54.315Z,54.27
2023-02-21T13:02:45.705Z,55.37
2023-02-21T13:05:25.937Z,55.40
2023-02-21T13:07:57.034Z,62.03
2023-02-21T13:10:52.512Z,56.50
2023-02-21T13:13:25.675Z,54.90
2023-02-21T13:15:54.112Z,53.30
2023-02-21T13:18:29.045Z,59.70
2023-02-21T13:21:08.172Z,59.50
2023-02-21T13:24:30.865Z,58.50
2023-02-21T13:27:19.273Z,58.33
2023-02-21T13:29:46.084Z,53.87
2023-02-21T13:32:21.641Z,80.53
2023-02-21T13:34:48.457Z,54.37
2023-02-21T13:37:24.460Z,59.13
2023-02-21T13:40:01.367Z,59.30
2023-02-21T13:42:30.325Z,56.37
2023-02-21T13:45:22.812Z,56.53
2023-02-21T13:48:00.053Z,53.93
2023-02-21T13:50:39.102Z,58.57
2023-02-21T13:53:09.298Z,57.90
2023-02-21T13:55:37.496Z,56.30
2023-02-21T13:58:05.486Z,57.53
2023-02-21T14:00:32.172Z,54.23
2023-02-21T14:03:24.689Z,51.80
2023-02-21T14:05:51.312Z,50.83
2023-02-21T14:08:49.242Z,60.00
2023-02-21T14:11:28.785Z,56.53
2023-02-21T14:13:58.575Z,59.70
2023-02-21T14:16:27.285Z,56.37
2023-02-21T14:19:08.970Z,59.30
2023-02-21T14:21:42.854Z,55.00
2023-02-21T14:24:09.553Z,59.37
2023-02-21T14:26:42.733Z,56.73
2023-02-21T14:29:09.465Z,56.97
2023-02-21T14:32:08.895Z,57.67
2023-02-21T14:34:47.582Z,53.57
2023-02-21T14:37:17.301Z,57.83
2023-02-21T14:39:49.662Z,60.10
2023-02-21T14:42:22.217Z,69.30
2023-02-21T14:45:11.774Z,67.27
2023-02-21T14:47:41.619Z,59.70
2023-02-21T14:50:31.617Z,68.23
2023-02-21T14:53:33.715Z,67.50
2023-02-21T14:56:24.420Z,66.30
2023-02-21T14:59:07.961Z,73.50
2023-02-21T15:01:42.142Z,73.80
2023-02-21T15:04:24.079Z,76.50
2023-02-21T15:07:12.289Z,75.87
2023-02-21T15:09:39.054Z,84.20
2023-02-21T15:12:17.331Z,81.20
2023-02-21T15:14:50.717Z,76.13
2023-02-21T15:17:23.299Z,82.80
2023-02-21T15:20:05.737Z,76.20
2023-02-21T15:22:32.541Z,76.97
2023-02-21T15:25:07.816Z,79.20
2023-02-21T15:27:50.918Z,67.67
2023-02-21T15:30:24.715Z,78.27
2023-02-21T15:33:11.118Z,80.83
2023-02-21T15:35:43.197Z,78.50
2023-02-21T15:38:22.019Z,70.50
2023-02-21T15:40:51.063Z,67.27
2023-02-21T15:43:36.643Z,64.67
2023-02-21T15:46:05.202Z,60.73
2023-02-21T15:48:32.155Z,56.10
2023-02-21T15:51:04.658Z,58.10
2023-02-21T15:53:32.831Z,51.77
2023-02-21T15:56:17.824Z,55.80
2023-02-21T15:59:19.328Z,57.60
2023-02-21T16:02:07.267Z,51.67
2023-02-21T16:04:39.266Z,52.57
2023-02-21T16:07:14.062Z,47.23
2023-02-21T16:09:46.645Z,54.77
2023-02-21T16:12:14.184Z,53.93
2023-02-21T16:14:55.044Z,54.33
2023-02-21T16:17:29.641Z,56.33
2023-02-21T16:20:13.181Z,60.90
2023-02-21T16:23:06.370Z,59.77
2023-02-21T16:25:28.242Z,59.27
2023-02-21T16:27:57.852Z,64.80
2023-02-21T16:30:32.010Z,62.80
2023-02-21T16:33:04.388Z,60.67
2023-02-21T16:35:32.258Z,62.03
2023-02-21T16:38:00.632Z,63.90
2023-02-21T16:40:33.821Z,65.37
2023-02-21T16:43:02.228Z,76.03
2023-02-21T16:45:30.410Z,82.17
2023-02-21T16:48:02.551Z,72.00
2023-02-21T16:50:31.369Z,79.63
2023-02-21T16:52:59.910Z,81.70
2023-02-21T16:55:27.558Z,81.37
2023-02-21T16:57:59.266Z,78.77
2023-02-21T17:00:26.477Z,88.60
2023-02-21T17:02:53.520Z,77.77
2023-02-21T17:05:21.720Z,88.90
2023-02-21T17:07:49.762Z,87.80
2023-02-21T17:10:16.536Z,88.60
2023-02-21T17:12:43.695Z,98.80
2023-02-21T17:15:11.039Z,92.03
2023-02-21T17:17:38.583Z,80.67
2023-02-21T17:20:06.784Z,89.40
2023-02-21T17:22:33.772Z,81.87
2023-02-21T17:25:00.812Z,87.07
2023-02-21T17:27:27.768Z,86.70
2023-02-21T17:29:54.543Z,92.03
2023-02-21T17:32:21.327Z,83.40
2023-02-21T17:34:48.062Z,88.80
2023-02-21T17:37:14.758Z,88.33
2023-02-21T17:39:41.659Z,86.10
2023-02-21T17:42:08.376Z,87.70
2023-02-21T17:44:37.656Z,83.87
2023-02-21T17:47:07.522Z,79.17
2023-02-21T17:49:34.348Z,86.00
2023-02-21T17:52:01.053Z,86.70
2023-02-21T17:54:27.931Z,88.17
2023-02-21T17:56:54.656Z,89.97
2023-02-21T17:59:22.183Z,88.33
2023-02-21T18:01:48.928Z,83.27
2023-02-21T18:04:15.699Z,83.23
2023-02-21T18:06:43.085Z,81.67
2023-02-21T18:09:11.069Z,82.97
2023-02-21T18:11:37.880Z,86.97
2023-02-21T18:14:05.425Z,81.40
2023-02-21T18:16:32.508Z,88.90
2023-02-21T18:18:59.272Z,80.97
2023-02-21T18:21:27.434Z,82.97
2023-02-21T18:23:54.687Z,79.07
2023-02-21T18:26:21.806Z,86.37
2023-02-21T18:28:48.633Z,86.23
2023-02-21T18:31:19.915Z,86.30
2023-02-21T18:33:47.162Z,84.10
2023-02-21T18:36:13.921Z,85.07
2023-02-21T18:38:41.583Z,82.17
2023-02-21T18:41:18.354Z,93.03
2023-02-21T18:43:45.615Z,75.40
2023-02-21T18:46:15.189Z,90.13
2023-02-21T18:48:43.690Z,103.43
2023-02-21T18:51:12.322Z,116.23
2023-02-21T18:53:40.056Z,90.97
2023-02-21T18:56:11.882Z,88.13
2023-02-21T18:58:39.855Z,100.43
2023-02-21T19:01:08.913Z,86.53
2023-02-21T19:03:37.018Z,88.07
2023-02-21T19:06:04.084Z,88.53
2023-02-21T19:08:30.874Z,92.93
2023-02-21T19:10:57.599Z,106.20
2023-02-21T19:13:24.403Z,97.67
2023-02-21T19:15:51.191Z,85.17
2023-02-21T19:18:18.048Z,85.20
2023-02-21T19:20:44.797Z,86.80
2023-02-21T19:23:12.102Z,85.17
2023-02-21T19:25:39.087Z,81.30
2023-02-21T19:28:06.837Z,91.70
2023-02-21T19:30:36.604Z,89.60
2023-02-21T19:33:06.893Z,106.87
2023-02-21T19:35:35.514Z,89.50
2023-02-21T19:38:05.081Z,84.83
2023-02-21T19:40:32.466Z,88.30
2023-02-21T19:42:59.285Z,88.73
2023-02-21T19:45:26.008Z,91.07
2023-02-21T19:47:52.802Z,88.63
2023-02-21T19:50:19.845Z,90.47
2023-02-21T19:52:58.827Z,89.80
2023-02-21T19:55:27.366Z,103.50
2023-02-21T19:57:54.225Z,98.47
2023-02-21T20:00:21.334Z,85.00
2023-02-21T20:02:49.143Z,88.37
2023-02-21T20:05:16.742Z,93.93
2023-02-21T20:07:44.070Z,94.43
2023-02-21T20:10:12.397Z,100.27
2023-02-21T20:12:39.260Z,96.03
2023-02-21T20:15:07.461Z,96.63
2023-02-21T20:17:37.908Z,108.60
2023-02-21T20:20:11.374Z,99.53
2023-02-21T20:22:39.069Z,93.83
2023-02-21T20:25:06.802Z,107.70
2023-02-21T20:27:34.505Z,104.70
2023-02-21T20:30:01.192Z,112.13
2023-02-21T20:32:28.186Z,107.10
2023-02-21T20:34:56.792Z,108.90
2023-02-21T20:37:24.336Z,105.83
2023-02-21T20:39:51.436Z,118.77
2023-02-21T20:42:20.243Z,189.13
2023-02-21T20:44:48.232Z,105.83
2023-02-21T20:47:15.214Z,101.40
2023-02-21T20:49:46.302Z,102.63
2023-02-21T20:52:14.307Z,109.87
2023-02-21T20:54:41.938Z,116.87
2023-02-21T20:57:09.818Z,107.17
2023-02-21T20:59:38.847Z,119.13
2023-02-21T21:02:08.058Z,118.93
2023-02-21T21:04:38.038Z,110.90
2023-02-21T21:07:08.520Z,104.27
2023-02-21T21:09:37.605Z,116.43
2023-02-21T21:12:23.962Z,118.27
2023-02-21T21:14:54.963Z,109.40
2023-02-21T21:17:22.167Z,120.83
2023-02-21T21:19:49.582Z,127.23
2023-02-21T21:22:19.878Z,117.13
2023-02-21T21:24:46.797Z,108.57
2023-02-21T21:27:15.450Z,109.63
2023-02-21T21:29:43.925Z,117.90
2023-02-21T21:32:12.469Z,115.87
2023-02-21T21:34:43.259Z,124.13
2023-02-21T21:37:10.307Z,128.57
2023-02-21T21:39:37.548Z,134.87
2023-02-21T21:42:11.129Z,122.07
2023-02-21T21:44:39.827Z,147.83
2023-02-21T21:47:07.900Z,132.23
2023-02-21T21:49:37.649Z,151.10
2023-02-21T21:52:04.985Z,157.60
2023-02-21T21:54:36.029Z,137.53
2023-02-21T21:57:04.493Z,167.50
2023-02-21T21:59:32.617Z,199.63
2023-02-21T22:01:59.993Z,160.37
2023-02-21T22:04:27.231Z,353.50
2023-02-21T22:06:55.876Z,223.10
2023-02-21T22:09:23.146Z,152.00
2023-02-21T22:11:50.390Z,167.90
2023-02-21T22:14:19.074Z,285.73
2023-02-21T22:16:48.091Z,270.13
2023-02-21T22:19:16.156Z,240.00
2023-02-21T22:21:44.050Z,179.50
2023-02-21T22:24:11.534Z,131.80
2023-02-21T22:26:39.765Z,155.63
2023-02-21T22:29:07.626Z,157.77
2023-02-21T22:31:34.860Z,186.67
2023-02-21T22:34:02.257Z,159.27
2023-02-21T22:36:31.556Z,107.50
2023-02-21T22:38:58.456Z,226.37
2023-02-21T22:41:26.594Z,127.37
2023-02-21T22:43:55.151Z,127.53
2023-02-21T22:46:24.609Z,174.40
2023-02-21T22:48:52.024Z,193.23
2023-02-21T22:51:24.733Z,216.87
2023-02-21T22:53:51.651Z,119.70
2023-02-21T22:56:23.586Z,144.83
2023-02-21T22:58:51.289Z,132.97
2023-02-21T23:01:20.962Z,132.93
2023-02-21T23:03:48.314Z,124.73
2023-02-21T23:06:15.512Z,106.30
2023-02-21T23:08:48.066Z,96.87
2023-02-21T23:11:19.499Z,143.93
2023-02-21T23:13:46.905Z,109.77
2023-02-21T23:16:23.835Z,106.10
2023-02-21T23:18:50.664Z,109.47
2023-02-21T23:21:22.998Z,111.97
2023-02-21T23:23:50.489Z,129.57
2023-02-21T23:26:21.559Z,105.87
2023-02-21T23:28:49.444Z,115.30
2023-02-21T23:31:18.705Z,116.73
2023-02-21T23:33:49.774Z,98.53
2023-02-21T23:36:23.135Z,96.23
2023-02-21T23:38:51.191Z,134.43
2023-02-21T23:41:18.924Z,153.97
2023-02-21T23:43:46.795Z,93.83
2023-02-21T23:46:21.957Z,111.53
2023-02-21T23:48:49.788Z,96.30
2023-02-21T23:51:18.167Z,109.73
2023-02-21T23:53:45.386Z,84.00
2023-02-21T23:56:13.295Z,120.33
2023-02-21T23:58:44.377Z,97.57
